sensor_id;sensor_type;location;lat;lon;timestamp;pressure;altitude;pressure_sealevel;temperature;humidity
19789;BME280;10054;59.332;18.244;2023-02-01T00:01:31;98548.06;;;-4.72;100.00
19789;BME280;10054;59.332;18.244;2023-02-01T00:04:03;98558.80;;;-4.72;100.00
19789;BME280;10054;59.332;18.244;2023-02-01T00:06:32;98562.31;;;-4.75;100.00
19789;BME280;10054;59.332;18.244;2023-02-01T00:09:01;98555.19;;;-4.80;100.00
19789;BME280;10054;59.332;18.244;2023-02-01T00:11:30;98556.13;;;-4.82;100.00
19789;BME280;10054;59.332;18.244;2023-02-01T00:13:58;98555.64;;;-4.80;100.00
19789;BME280;10054;59.332;18.244;2023-02-01T00:16:29;98551.83;;;-4.82;100.00
19789;BME280;10054;59.332;18.244;2023-02-01T00:19:13;98549.36;;;-4.85;100.00
19789;BME280;10054;59.332;18.244;2023-02-01T00:21:42;98548.58;;;-4.87;100.00
19789;BME280;10054;59.332;18.244;2023-02-01T00:24:13;98548.97;;;-4.86;100.00
19789;BME280;10054;59.332;18.244;2023-02-01T00:26:44;98540.47;;;-4.88;100.00
19789;BME280;10054;59.332;18.244;2023-02-01T00:29:15;98536.95;;;-4.85;100.00
19789;BME280;10054;59.332;18.244;2023-02-01T00:31:45;98539.42;;;-4.82;100.00
19789;BME280;10054;59.332;18.244;2023-02-01T00:34:15;98541.05;;;-4.80;100.00
19789;BME280;10054;59.332;18.244;2023-02-01T00:36:45;98540.55;;;-4.78;100.00
19789;BME280;10054;59.332;18.244;2023-02-01T00:39:14;98547.38;;;-4.77;100.00
19789;BME280;10054;59.332;18.244;2023-02-01T00:41:43;98535.53;;;-4.69;100.00
19789;BME280;10054;59.332;18.244;2023-02-01T00:44:12;98540.50;;;-4.51;100.00
19789;BME280;10054;59.332;18.244;2023-02-01T00:46:42;98536.17;;;-4.39;100.00
19789;BME280;10054;59.332;18.244;2023-02-01T00:49:10;98533.48;;;-4.36;100.00
19789;BME280;10054;59.332;18.244;2023-02-01T00:51:40;98536.12;;;-4.38;100.00
19789;BME280;10054;59.332;18.244;2023-02-01T00:54:08;98539.19;;;-4.40;100.00
19789;BME280;10054;59.332;18.244;2023-02-01T00:56:37;98531.03;;;-4.39;100.00
19789;BME280;10054;59.332;18.244;2023-02-01T00:59:06;98529.69;;;-4.38;100.00
19789;BME280;10054;59.332;18.244;2023-02-01T01:01:35;98530.19;;;-4.40;100.00
19789;BME280;10054;59.332;18.244;2023-02-01T01:04:04;98528.51;;;-4.41;100.00
19789;BME280;10054;59.332;18.244;2023-02-01T01:06:34;98525.09;;;-4.41;100.00
19789;BME280;10054;59.332;18.244;2023-02-01T01:09:05;98523.36;;;-4.41;100.00
19789;BME280;10054;59.332;18.244;2023-02-01T01:11:36;98525.93;;;-4.41;100.00
19789;BME280;10054;59.332;18.244;2023-02-01T01:14:07;98527.89;;;-4.36;100.00
19789;BME280;10054;59.332;18.244;2023-02-01T01:16:37;98532.04;;;-4.32;100.00
19789;BME280;10054;59.332;18.244;2023-02-01T01:19:06;98532.27;;;-4.26;100.00
19789;BME280;10054;59.332;18.244;2023-02-01T01:21:35;98530.48;;;-4.24;100.00
19789;BME280;10054;59.332;18.244;2023-02-01T01:24:04;98528.69;;;-4.22;100.00
19789;BME280;10054;59.332;18.244;2023-02-01T01:26:33;98534.23;;;-4.21;100.00
19789;BME280;10054;59.332;18.244;2023-02-01T01:29:02;98533.67;;;-4.17;100.00
19789;BME280;10054;59.332;18.244;2023-02-01T01:31:31;98534.45;;;-4.04;100.00
19789;BME280;10054;59.332;18.244;2023-02-01T01:34:00;98538.59;;;-3.88;100.00
19789;BME280;10054;59.332;18.244;2023-02-01T01:36:30;98541.49;;;-3.85;100.00
19789;BME280;10054;59.332;18.244;2023-02-01T01:38:58;98548.83;;;-3.86;100.00
19789;BME280;10054;59.332;18.244;2023-02-01T01:41:29;98547.59;;;-3.88;100.00
19789;BME280;10054;59.332;18.244;2023-02-01T01:44:02;98548.50;;;-3.89;100.00
19789;BME280;10054;59.332;18.244;2023-02-01T01:46:39;98542.00;;;-3.87;100.00
19789;BME280;10054;59.332;18.244;2023-02-01T01:49:22;98542.00;;;-3.87;100.00
19789;BME280;10054;59.332;18.244;2023-02-01T01:51:57;98542.05;;;-3.89;100.00
19789;BME280;10054;59.332;18.244;2023-02-01T01:54:32;98541.22;;;-3.89;100.00
19789;BME280;10054;59.332;18.244;2023-02-01T01:57:09;98547.99;;;-3.87;100.00
19789;BME280;10054;59.332;18.244;2023-02-01T01:59:39;98551.41;;;-3.86;100.00
19789;BME280;10054;59.332;18.244;2023-02-01T02:02:10;98554.82;;;-3.86;100.00
19789;BME280;10054;59.332;18.244;2023-02-01T02:04:39;98550.51;;;-3.85;100.00
19789;BME280;10054;59.332;18.244;2023-02-01T02:07:19;98554.70;;;-3.83;100.00
19789;BME280;10054;59.332;18.244;2023-02-01T02:09:42;98551.73;;;-3.84;100.00
19789;BME280;10054;59.332;18.244;2023-02-01T02:12:11;98555.21;;;-3.85;100.00
19789;BME280;10054;59.332;18.244;2023-02-01T02:14:40;98553.98;;;-3.86;100.00
19789;BME280;10054;59.332;18.244;2023-02-01T02:26:01;98551.13;;;-3.79;100.00
19789;BME280;10054;59.332;18.244;2023-02-01T02:31:24;98540.70;;;-3.66;100.00
19789;BME280;10054;59.332;18.244;2023-02-01T02:42:20;98537.27;;;-3.33;100.00
19789;BME280;10054;59.332;18.244;2023-02-01T02:53:53;98544.13;;;-3.43;100.00
19789;BME280;10054;59.332;18.244;2023-02-01T02:56:32;98547.01;;;-3.51;100.00
19789;BME280;10054;59.332;18.244;2023-02-01T02:59:20;98550.16;;;-3.54;100.00
19789;BME280;10054;59.332;18.244;2023-02-01T03:02:08;98555.48;;;-3.59;100.00
19789;BME280;10054;59.332;18.244;2023-02-01T03:04:55;98553.41;;;-3.61;100.00
19789;BME280;10054;59.332;18.244;2023-02-01T03:12:59;98547.36;;;-3.60;100.00
19789;BME280;10054;59.332;18.244;2023-02-01T03:16:07;98547.75;;;-3.59;100.00
19789;BME280;10054;59.332;18.244;2023-02-01T03:18:42;98547.30;;;-3.58;100.00
19789;BME280;10054;59.332;18.244;2023-02-01T03:21:12;98556.59;;;-3.54;100.00
19789;BME280;10054;59.332;18.244;2023-02-01T03:23:42;98556.15;;;-3.54;100.00
19789;BME280;10054;59.332;18.244;2023-02-01T03:26:13;98559.95;;;-3.52;100.00
19789;BME280;10054;59.332;18.244;2023-02-01T03:28:48;98559.39;;;-3.49;100.00
19789;BME280;10054;59.332;18.244;2023-02-01T03:31:15;98557.14;;;-3.46;100.00
19789;BME280;10054;59.332;18.244;2023-02-01T03:33:44;98544.91;;;-3.41;100.00
19789;BME280;10054;59.332;18.244;2023-02-01T03:36:15;98544.41;;;-3.39;100.00
19789;BME280;10054;59.332;18.244;2023-02-01T03:39:15;98544.28;;;-3.36;100.00
19789;BME280;10054;59.332;18.244;2023-02-01T03:41:48;98543.89;;;-3.37;100.00
19789;BME280;10054;59.332;18.244;2023-02-01T03:47:08;98548.36;;;-3.31;100.00
19789;BME280;10054;59.332;18.244;2023-02-01T03:49:44;98558.48;;;-3.26;100.00
19789;BME280;10054;59.332;18.244;2023-02-01T03:52:15;98554.07;;;-3.12;100.00
19789;BME280;10054;59.332;18.244;2023-02-01T03:54:45;98553.06;;;-2.98;100.00
19789;BME280;10054;59.332;18.244;2023-02-01T03:57:16;98556.59;;;-2.90;100.00
19789;BME280;10054;59.332;18.244;2023-02-01T03:59:47;98550.66;;;-2.92;100.00
19789;BME280;10054;59.332;18.244;2023-02-01T04:02:17;98550.78;;;-2.95;100.00
19789;BME280;10054;59.332;18.244;2023-02-01T04:04:46;98549.26;;;-3.00;100.00
19789;BME280;10054;59.332;18.244;2023-02-01T04:07:16;98554.48;;;-3.01;100.00
19789;BME280;10054;59.332;18.244;2023-02-01T04:09:44;98548.22;;;-3.06;100.00
19789;BME280;10054;59.332;18.244;2023-02-01T04:12:13;98554.46;;;-3.11;100.00
19789;BME280;10054;59.332;18.244;2023-02-01T04:14:42;98551.61;;;-3.15;100.00
19789;BME280;10054;59.332;18.244;2023-02-01T04:17:11;98557.16;;;-3.14;100.00
19789;BME280;10054;59.332;18.244;2023-02-01T04:19:40;98558.84;;;-3.13;100.00
19789;BME280;10054;59.332;18.244;2023-02-01T04:22:08;98558.45;;;-3.14;100.00
19789;BME280;10054;59.332;18.244;2023-02-01T04:24:37;98555.03;;;-3.15;100.00
19789;BME280;10054;59.332;18.244;2023-02-01T04:27:06;98552.01;;;-3.14;100.00
19789;BME280;10054;59.332;18.244;2023-02-01T04:29:34;98554.52;;;-3.13;100.00
19789;BME280;10054;59.332;18.244;2023-02-01T04:32:03;98557.10;;;-3.13;100.00
19789;BME280;10054;59.332;18.244;2023-02-01T04:34:32;98561.81;;;-3.12;100.00
19789;BME280;10054;59.332;18.244;2023-02-01T04:37:00;98560.84;;;-3.10;100.00
19789;BME280;10054;59.332;18.244;2023-02-01T04:39:29;98565.05;;;-3.07;100.00
19789;BME280;10054;59.332;18.244;2023-02-01T04:41:58;98561.89;;;-3.04;100.00
19789;BME280;10054;59.332;18.244;2023-02-01T04:44:27;98560.92;;;-3.01;100.00
19789;BME280;10054;59.332;18.244;2023-02-01T04:46:56;98574.00;;;-2.95;100.00
19789;BME280;10054;59.332;18.244;2023-02-01T04:49:26;98571.36;;;-2.94;100.00
19789;BME280;10054;59.332;18.244;2023-02-01T04:51:54;98562.27;;;-2.92;100.00
19789;BME280;10054;59.332;18.244;2023-02-01T04:54:23;98559.30;;;-2.93;100.00
19789;BME280;10054;59.332;18.244;2023-02-01T04:56:53;98562.27;;;-2.92;100.00
19789;BME280;10054;59.332;18.244;2023-02-01T04:59:21;98560.52;;;-2.92;100.00
19789;BME280;10054;59.332;18.244;2023-02-01T05:01:50;98558.84;;;-2.93;100.00
19789;BME280;10054;59.332;18.244;2023-02-01T05:04:19;98552.91;;;-2.95;100.00
19789;BME280;10054;59.332;18.244;2023-02-01T05:06:48;98553.69;;;-2.93;100.00
19789;BME280;10054;59.332;18.244;2023-02-01T05:09:16;98549.36;;;-2.92;100.00
19789;BME280;10054;59.332;18.244;2023-02-01T05:11:45;98561.81;;;-2.92;100.00
19789;BME280;10054;59.332;18.244;2023-02-01T05:14:32;98566.58;;;-2.93;100.00
19789;BME280;10054;59.332;18.244;2023-02-01T05:17:01;98569.55;;;-2.92;100.00
19789;BME280;10054;59.332;18.244;2023-02-01T05:19:30;98568.98;;;-2.88;100.00
19789;BME280;10054;59.332;18.244;2023-02-01T05:21:59;98576.14;;;-2.85;100.00
19789;BME280;10054;59.332;18.244;2023-02-01T05:24:29;98576.02;;;-2.82;100.00
19789;BME280;10054;59.332;18.244;2023-02-01T05:26:57;98580.14;;;-2.78;100.00
19789;BME280;10054;59.332;18.244;2023-02-01T05:29:28;98574.47;;;-2.76;100.00
19789;BME280;10054;59.332;18.244;2023-02-01T05:31:56;98580.41;;;-2.74;100.00
19789;BME280;10054;59.332;18.244;2023-02-01T05:34:26;98585.44;;;-2.71;100.00
19789;BME280;10054;59.332;18.244;2023-02-01T05:36:54;98584.86;;;-2.67;100.00
19789;BME280;10054;59.332;18.244;2023-02-01T05:39:23;98590.80;;;-2.65;100.00
19789;BME280;10054;59.332;18.244;2023-02-01T05:41:51;98588.61;;;-2.64;100.00
19789;BME280;10054;59.332;18.244;2023-02-01T05:44:20;98588.48;;;-2.61;100.00
19789;BME280;10054;59.332;18.244;2023-02-01T05:46:49;98586.73;;;-2.60;100.00
19789;BME280;10054;59.332;18.244;2023-02-01T05:49:19;98591.84;;;-2.59;100.00
19789;BME280;10054;59.332;18.244;2023-02-01T05:51:48;98595.84;;;-2.52;100.00
19789;BME280;10054;59.332;18.244;2023-02-01T05:54:17;98594.30;;;-2.46;100.00
19789;BME280;10054;59.332;18.244;2023-02-01T05:56:45;98594.74;;;-2.36;100.00
19789;BME280;10054;59.332;18.244;2023-02-01T05:59:14;98596.70;;;-2.22;100.00
19789;BME280;10054;59.332;18.244;2023-02-01T06:01:43;98598.44;;;-2.13;100.00
19789;BME280;10054;59.332;18.244;2023-02-01T06:04:12;98595.92;;;-2.14;100.00
19789;BME280;10054;59.332;18.244;2023-02-01T06:06:41;98600.77;;;-2.17;100.00
19789;BME280;10054;59.332;18.244;2023-02-01T06:09:10;98599.22;;;-2.21;100.00
19789;BME280;10054;59.332;18.244;2023-02-01T06:11:39;98598.48;;;-2.23;100.00
19789;BME280;10054;59.332;18.244;2023-02-01T06:14:09;98597.70;;;-2.25;100.00
19789;BME280;10054;59.332;18.244;2023-02-01T06:16:37;98605.06;;;-2.26;100.00
19789;BME280;10054;59.332;18.244;2023-02-01T06:19:06;98608.94;;;-2.26;100.00
19789;BME280;10054;59.332;18.244;2023-02-01T06:21:36;98609.08;;;-2.29;100.00
19789;BME280;10054;59.332;18.244;2023-02-01T06:24:05;98616.75;;;-2.27;100.00
19789;BME280;10054;59.332;18.244;2023-02-01T06:26:34;98613.59;;;-2.24;100.00
19789;BME280;10054;59.332;18.244;2023-02-01T06:29:03;98610.10;;;-2.23;100.00
19789;BME280;10054;59.332;18.244;2023-02-01T06:31:34;98612.59;;;-2.21;100.00
19789;BME280;10054;59.332;18.244;2023-02-01T06:34:02;98613.42;;;-2.21;100.00
19789;BME280;10054;59.332;18.244;2023-02-01T06:36:31;98620.72;;;-2.20;100.00
19789;BME280;10054;59.332;18.244;2023-02-01T06:39:01;98619.88;;;-2.21;100.00
19789;BME280;10054;59.332;18.244;2023-02-01T06:41:31;98630.15;;;-2.19;100.00
19789;BME280;10054;59.332;18.244;2023-02-01T06:44:01;98628.02;;;-2.20;100.00
19789;BME280;10054;59.332;18.244;2023-02-01T06:46:30;98632.73;;;-2.19;100.00
19789;BME280;10054;59.332;18.244;2023-02-01T06:48:58;98632.73;;;-2.19;100.00
19789;BME280;10054;59.332;18.244;2023-02-01T06:51:28;98632.80;;;-2.21;100.00
19789;BME280;10054;59.332;18.244;2023-02-01T06:53:57;98634.93;;;-2.20;100.00
19789;BME280;10054;59.332;18.244;2023-02-01T06:56:27;98630.60;;;-2.20;100.00
19789;BME280;10054;59.332;18.244;2023-02-01T06:58:56;98635.25;;;-2.18;100.00
19789;BME280;10054;59.332;18.244;2023-02-01T07:01:25;98637.77;;;-2.16;100.00
19789;BME280;10054;59.332;18.244;2023-02-01T07:03:54;98637.25;;;-2.14;100.00
19789;BME280;10054;59.332;18.244;2023-02-01T07:06:23;98630.73;;;-2.13;100.00
19789;BME280;10054;59.332;18.244;2023-02-01T07:08:52;98630.08;;;-2.08;100.00
19789;BME280;10054;59.332;18.244;2023-02-01T07:11:23;98639.61;;;-1.89;100.00
19789;BME280;10054;59.332;18.244;2023-02-01T07:13:54;98630.62;;;-1.81;100.00
19789;BME280;10054;59.332;18.244;2023-02-01T07:16:22;98629.39;;;-1.82;100.00
19789;BME280;10054;59.332;18.244;2023-02-01T07:18:52;98624.43;;;-1.87;100.00
19789;BME280;10054;59.332;18.244;2023-02-01T07:21:21;98630.19;;;-1.90;100.00
19789;BME280;10054;59.332;18.244;2023-02-01T07:23:49;98628.64;;;-1.94;100.00
19789;BME280;10054;59.332;18.244;2023-02-01T07:26:18;98631.30;;;-1.96;100.00
19789;BME280;10054;59.332;18.244;2023-02-01T07:28:47;98627.94;;;-1.98;100.00
19789;BME280;10054;59.332;18.244;2023-02-01T07:31:19;98627.09;;;-1.99;100.00
19789;BME280;10054;59.332;18.244;2023-02-01T07:33:49;98632.65;;;-1.97;100.00
19789;BME280;10054;59.332;18.244;2023-02-01T07:36:20;98638.27;;;-1.98;100.00
19789;BME280;10054;59.332;18.244;2023-02-01T07:38:49;98637.36;;;-1.97;100.00
19789;BME280;10054;59.332;18.244;2023-02-01T07:41:19;98643.82;;;-1.97;100.00
19789;BME280;10054;59.332;18.244;2023-02-01T07:43:48;98646.73;;;-1.94;100.00
19789;BME280;10054;59.332;18.244;2023-02-01T07:46:18;98647.63;;;-1.95;100.00
19789;BME280;10054;59.332;18.244;2023-02-01T07:48:47;98655.31;;;-1.94;100.00
19789;BME280;10054;59.332;18.244;2023-02-01T07:51:16;98648.86;;;-1.94;100.00
19789;BME280;10054;59.332;18.244;2023-02-01T07:53:45;98652.67;;;-1.92;100.00
19789;BME280;10054;59.332;18.244;2023-02-01T07:56:19;98648.34;;;-1.92;100.00
19789;BME280;10054;59.332;18.244;2023-02-01T07:58:51;98647.89;;;-1.91;100.00
19789;BME280;10054;59.332;18.244;2023-02-01T08:01:22;98647.44;;;-1.91;100.00
19789;BME280;10054;59.332;18.244;2023-02-01T08:03:55;98648.14;;;-1.87;100.00
19789;BME280;10054;59.332;18.244;2023-02-01T08:06:25;98647.17;;;-1.85;100.00
19789;BME280;10054;59.332;18.244;2023-02-01T08:08:54;98649.48;;;-1.79;100.00
19789;BME280;10054;59.332;18.244;2023-02-01T08:11:25;98650.51;;;-1.73;100.00
19789;BME280;10054;59.332;18.244;2023-02-01T08:13:54;98649.78;;;-1.66;100.00
19789;BME280;10054;59.332;18.244;2023-02-01T08:16:23;98657.65;;;-1.59;100.00
19789;BME280;10054;59.332;18.244;2023-02-01T08:18:53;98660.41;;;-1.53;100.00
19789;BME280;10054;59.332;18.244;2023-02-01T08:21:25;98659.27;;;-1.48;100.00
19789;BME280;10054;59.332;18.244;2023-02-01T08:23:53;98663.33;;;-1.42;100.00
19789;BME280;10054;59.332;18.244;2023-02-01T08:26:25;98660.47;;;-1.36;100.00
19789;BME280;10054;59.332;18.244;2023-02-01T08:28:56;98662.39;;;-1.31;100.00
19789;BME280;10054;59.332;18.244;2023-02-01T08:31:27;98672.52;;;-1.26;100.00
19789;BME280;10054;59.332;18.244;2023-02-01T08:34:01;98669.80;;;-1.23;100.00
19789;BME280;10054;59.332;18.244;2023-02-01T08:36:32;98668.75;;;-1.19;100.00
19789;BME280;10054;59.332;18.244;2023-02-01T08:39:01;98670.81;;;-1.17;100.00
19789;BME280;10054;59.332;18.244;2023-02-01T08:41:32;98679.27;;;-1.14;100.00
19789;BME280;10054;59.332;18.244;2023-02-01T08:44:01;98669.30;;;-1.13;100.00
19789;BME280;10054;59.332;18.244;2023-02-01T08:46:30;98677.84;;;-1.11;100.00
19789;BME280;10054;59.332;18.244;2023-02-01T08:48:59;98676.92;;;-1.10;100.00
19789;BME280;10054;59.332;18.244;2023-02-01T08:51:28;98675.17;;;-1.09;100.00
19789;BME280;10054;59.332;18.244;2023-02-01T08:53:57;98676.33;;;-1.06;100.00
19789;BME280;10054;59.332;18.244;2023-02-01T08:56:26;98674.97;;;-1.05;100.00
19789;BME280;10054;59.332;18.244;2023-02-01T08:58:54;98668.00;;;-0.94;100.00
19789;BME280;10054;59.332;18.244;2023-02-01T09:01:23;98670.00;;;-0.82;100.00
19789;BME280;10054;59.332;18.244;2023-02-01T09:03:52;98674.19;;;-0.71;100.00
19789;BME280;10054;59.332;18.244;2023-02-01T09:06:21;98669.01;;;-0.71;100.00
19789;BME280;10054;59.332;18.244;2023-02-01T09:08:49;98666.49;;;-0.72;100.00
19789;BME280;10054;59.332;18.244;2023-02-01T09:11:19;98666.22;;;-0.75;100.00
19789;BME280;10054;59.332;18.244;2023-02-01T09:13:48;98669.26;;;-0.75;100.00
19789;BME280;10054;59.332;18.244;2023-02-01T09:16:17;98669.26;;;-0.75;100.00
19789;BME280;10054;59.332;18.244;2023-02-01T09:18:46;98668.31;;;-0.74;100.00
19789;BME280;10054;59.332;18.244;2023-02-01T09:21:14;98669.92;;;-0.72;100.00
19789;BME280;10054;59.332;18.244;2023-02-01T09:23:43;98675.02;;;-0.70;100.00
19789;BME280;10054;59.332;18.244;2023-02-01T09:26:12;98669.77;;;-0.69;100.00
19789;BME280;10054;59.332;18.244;2023-02-01T09:28:41;98679.45;;;-0.63;100.00
19789;BME280;10054;59.332;18.244;2023-02-01T09:31:09;98676.33;;;-0.61;100.00
19789;BME280;10054;59.332;18.244;2023-02-01T09:33:38;98678.78;;;-0.58;100.00
19789;BME280;10054;59.332;18.244;2023-02-01T09:36:08;98689.90;;;-0.56;100.00
19789;BME280;10054;59.332;18.244;2023-02-01T09:38:37;98690.81;;;-0.57;100.00
19789;BME280;10054;59.332;18.244;2023-02-01T09:46:28;98691.80;;;-0.60;100.00
19789;BME280;10054;59.332;18.244;2023-02-01T09:49:00;98694.84;;;-0.60;100.00
19789;BME280;10054;59.332;18.244;2023-02-01T09:51:33;98694.45;;;-0.61;100.00
19789;BME280;10054;59.332;18.244;2023-02-01T09:54:18;98695.30;;;-0.61;100.00
19789;BME280;10054;59.332;18.244;2023-02-01T09:57:06;98694.31;;;-0.58;100.00
19789;BME280;10054;59.332;18.244;2023-02-01T09:59:57;98693.78;;;-0.56;100.00
19789;BME280;10054;59.332;18.244;2023-02-01T10:02:26;98690.20;;;-0.54;100.00
19789;BME280;10054;59.332;18.244;2023-02-01T10:04:59;98686.62;;;-0.51;100.00
19789;BME280;10054;59.332;18.244;2023-02-01T10:10:18;98687.25;;;-0.46;100.00
19789;BME280;10054;59.332;18.244;2023-02-01T10:15:46;98691.30;;;-0.32;100.00
19789;BME280;10054;59.332;18.244;2023-02-01T10:18:39;98689.86;;;-0.29;100.00
19789;BME280;10054;59.332;18.244;2023-02-01T10:21:10;98692.06;;;-0.30;100.00
19789;BME280;10054;59.332;18.244;2023-02-01T10:26:33;98693.20;;;-0.27;100.00
19789;BME280;10054;59.332;18.244;2023-02-01T10:29:04;98698.77;;;-0.26;100.00
19789;BME280;10054;59.332;18.244;2023-02-01T10:31:36;98699.16;;;-0.25;100.00
19789;BME280;10054;59.332;18.244;2023-02-01T10:34:27;98699.45;;;-0.22;100.00
19789;BME280;10054;59.332;18.244;2023-02-01T10:39:52;98707.53;;;-0.20;100.00
19789;BME280;10054;59.332;18.244;2023-02-01T10:42:24;98705.25;;;-0.17;100.00
19789;BME280;10054;59.332;18.244;2023-02-01T10:44:54;98706.93;;;-0.16;100.00
19789;BME280;10054;59.332;18.244;2023-02-01T10:47:23;98715.02;;;-0.14;100.00
19789;BME280;10054;59.332;18.244;2023-02-01T10:52:43;98718.97;;;-0.15;100.00
19789;BME280;10054;59.332;18.244;2023-02-01T10:58:07;98718.97;;;-0.15;100.00
19789;BME280;10054;59.332;18.244;2023-02-01T11:00:46;98711.80;;;-0.19;100.00
19789;BME280;10054;59.332;18.244;2023-02-01T11:03:32;98711.89;;;-0.12;100.00
19789;BME280;10054;59.332;18.244;2023-02-01T11:05:51;98707.70;;;-0.14;100.00
19789;BME280;10054;59.332;18.244;2023-02-01T11:08:20;98709.91;;;-0.15;100.00
19789;BME280;10054;59.332;18.244;2023-02-01T11:10:58;98706.17;;;-0.18;100.00
19789;BME280;10054;59.332;18.244;2023-02-01T11:13:29;98707.08;;;-0.19;100.00
19789;BME280;10054;59.332;18.244;2023-02-01T11:16:00;98707.92;;;-0.19;100.00
19789;BME280;10054;59.332;18.244;2023-02-01T11:18:33;98713.03;;;-0.17;100.00
19789;BME280;10054;59.332;18.244;2023-02-01T11:21:01;98710.52;;;-0.19;100.00
19789;BME280;10054;59.332;18.244;2023-02-01T11:23:33;98719.13;;;-0.18;100.00
19789;BME280;10054;59.332;18.244;2023-02-01T11:26:24;98721.19;;;-0.16;100.00
19789;BME280;10054;59.332;18.244;2023-02-01T11:29:02;98722.25;;;-0.20;100.00
19789;BME280;10054;59.332;18.244;2023-02-01T11:31:32;98725.75;;;-0.21;100.00
19789;BME280;10054;59.332;18.244;2023-02-01T11:34:19;98716.76;;;-0.23;100.00
19789;BME280;10054;59.332;18.244;2023-02-01T11:36:50;98715.39;;;-0.21;100.00
19789;BME280;10054;59.332;18.244;2023-02-01T11:39:32;98721.94;;;-0.23;100.00
19789;BME280;10054;59.332;18.244;2023-02-01T11:42:12;98715.84;;;-0.22;100.00
19789;BME280;10054;59.332;18.244;2023-02-01T11:44:43;98724.61;;;-0.24;100.00
19789;BME280;10054;59.332;18.244;2023-02-01T11:49:56;98732.07;;;-0.27;100.00
19789;BME280;10054;59.332;18.244;2023-02-01T11:52:48;98731.45;;;-0.32;100.00
19789;BME280;10054;59.332;18.244;2023-02-01T11:58:16;98741.89;;;-0.34;100.00
19789;BME280;10054;59.332;18.244;2023-02-01T12:01:01;98737.77;;;-0.38;100.00
19789;BME280;10054;59.332;18.244;2023-02-01T12:03:43;98745.02;;;-0.36;100.00
19789;BME280;10054;59.332;18.244;2023-02-01T12:09:07;98753.63;;;-0.35;100.00
19789;BME280;10054;59.332;18.244;2023-02-01T12:11:59;98745.16;;;-0.39;100.00
19789;BME280;10054;59.332;18.244;2023-02-01T12:15:08;98752.78;;;-0.36;100.00
19789;BME280;10054;59.332;18.244;2023-02-01T12:17:41;98748.59;;;-0.38;100.00
19789;BME280;10054;59.332;18.244;2023-02-01T12:20:37;98745.47;;;-0.36;100.00
19789;BME280;10054;59.332;18.244;2023-02-01T12:23:26;98752.86;;;-0.37;100.00
19789;BME280;10054;59.332;18.244;2023-02-01T12:29:13;98754.16;;;-0.37;100.00
19789;BME280;10054;59.332;18.244;2023-02-01T12:31:44;98751.56;;;-0.37;100.00
19789;BME280;10054;59.332;18.244;2023-02-01T12:34:38;98759.48;;;-0.40;100.00
19789;BME280;10054;59.332;18.244;2023-02-01T12:40:11;98764.04;;;-0.45;100.00
19789;BME280;10054;59.332;18.244;2023-02-01T12:42:38;98765.86;;;-0.47;100.00
19789;BME280;10054;59.332;18.244;2023-02-01T12:45:28;98768.45;;;-0.47;100.00
19789;BME280;10054;59.332;18.244;2023-02-01T12:48:05;98772.86;;;-0.49;100.00
19789;BME280;10054;59.332;18.244;2023-02-01T12:50:39;98769.82;;;-0.49;100.00
19789;BME280;10054;59.332;18.244;2023-02-01T12:53:15;98772.41;;;-0.49;100.00
19789;BME280;10054;59.332;18.244;2023-02-01T12:55:52;98772.86;;;-0.49;100.00
19789;BME280;10054;59.332;18.244;2023-02-01T12:58:20;98779.34;;;-0.49;100.00
19789;BME280;10054;59.332;18.244;2023-02-01T13:00:52;98780.01;;;-0.54;100.00
19789;BME280;10054;59.332;18.244;2023-02-01T13:03:36;98790.05;;;-0.57;100.00
19789;BME280;10054;59.332;18.244;2023-02-01T13:06:19;98788.16;;;-0.53;100.00
19789;BME280;10054;59.332;18.244;2023-02-01T13:11:45;98791.66;;;-0.54;100.00
19789;BME280;10054;59.332;18.244;2023-02-01T13:19:42;98789.84;;;-0.52;100.00
19789;BME280;10054;59.332;18.244;2023-02-01T13:22:26;98793.20;;;-0.50;100.00
19789;BME280;10054;59.332;18.244;2023-02-01T13:27:33;98787.35;;;-0.45;100.00
19789;BME280;10054;59.332;18.244;2023-02-01T13:35:39;98792.55;;;-0.37;100.00
19789;BME280;10054;59.332;18.244;2023-02-01T13:38:38;98799.56;;;-0.39;100.00
19789;BME280;10054;59.332;18.244;2023-02-01T13:43:51;98815.17;;;-0.40;100.00
19789;BME280;10054;59.332;18.244;2023-02-01T13:46:20;98815.62;;;-0.41;100.00
19789;BME280;10054;59.332;18.244;2023-02-01T13:49:00;98827.28;;;-0.41;100.00
19789;BME280;10054;59.332;18.244;2023-02-01T13:51:40;98825.68;;;-0.43;100.00
19789;BME280;10054;59.332;18.244;2023-02-01T13:54:21;98829.56;;;-0.43;100.00
19789;BME280;10054;59.332;18.244;2023-02-01T13:56:42;98823.16;;;-0.45;100.00
19789;BME280;10054;59.332;18.244;2023-02-01T14:05:11;98830.09;;;-0.45;100.00
19789;BME280;10054;59.332;18.244;2023-02-01T14:10:55;98830.93;;;-0.45;100.00
19789;BME280;10054;59.332;18.244;2023-02-01T14:13:41;98839.54;;;-0.44;100.00
19789;BME280;10054;59.332;18.244;2023-02-01T14:16:19;98846.02;;;-0.44;100.00
19789;BME280;10054;59.332;18.244;2023-02-01T14:21:33;98868.42;;;-0.43;100.00
19789;BME280;10054;59.332;18.244;2023-02-01T14:26:43;98875.94;;;-0.47;100.00
19789;BME280;10054;59.332;18.244;2023-02-01T14:34:49;98873.70;;;-0.55;100.00
19789;BME280;10054;59.332;18.244;2023-02-01T14:37:23;98875.52;;;-0.57;100.00
19789;BME280;10054;59.332;18.244;2023-02-01T14:39:50;98878.95;;;-0.56;100.00
19789;BME280;10054;59.332;18.244;2023-02-01T14:42:24;98879.86;;;-0.57;100.00
19789;BME280;10054;59.332;18.244;2023-02-01T14:44:55;98888.92;;;-0.57;100.00
19789;BME280;10054;59.332;18.244;2023-02-01T14:47:29;98895.47;;;-0.59;100.00
19789;BME280;10054;59.332;18.244;2023-02-01T15:01:24;98890.88;;;-0.62;100.00
19789;BME280;10054;59.332;18.244;2023-02-01T15:06:42;98907.00;;;-0.66;100.00
19789;BME280;10054;59.332;18.244;2023-02-01T15:09:16;98915.30;;;-0.68;100.00
19789;BME280;10054;59.332;18.244;2023-02-01T15:12:15;98914.45;;;-0.69;100.00
19789;BME280;10054;59.332;18.244;2023-02-01T15:14:39;98914.52;;;-0.70;100.00